createdAt,value
2022-08-26T00:01:24.320Z,20.80
2022-08-26T00:03:56.749Z,17.50
2022-08-26T00:06:24.640Z,18.50
2022-08-26T00:08:51.595Z,18.30
2022-08-26T00:11:26.693Z,17.50
2022-08-26T00:13:57.261Z,17.50
2022-08-26T00:16:26.405Z,17.60
2022-08-26T00:18:53.253Z,17.60
2022-08-26T00:21:20.213Z,20.00
2022-08-26T00:23:46.927Z,18.50
2022-08-26T00:26:14.253Z,20.80
2022-08-26T00:28:41.012Z,17.40
2022-08-26T00:31:08.087Z,17.70
2022-08-26T00:33:38.561Z,18.90
2022-08-26T00:36:06.082Z,18.60
2022-08-26T00:38:33.253Z,17.00
2022-08-26T00:41:00.431Z,17.60
2022-08-26T00:43:27.495Z,20.10
2022-08-26T00:46:00.844Z,16.70
2022-08-26T00:48:31.776Z,16.60
2022-08-26T00:51:02.020Z,16.50
2022-08-26T00:53:30.516Z,19.30
2022-08-26T00:56:01.596Z,19.70
2022-08-26T00:58:29.493Z,19.10
2022-08-26T01:00:56.231Z,17.40
2022-08-26T01:03:25.543Z,17.60
2022-08-26T01:05:55.259Z,16.40
2022-08-26T01:08:23.233Z,17.50
2022-08-26T01:10:52.425Z,16.40
2022-08-26T01:13:23.066Z,16.50
2022-08-26T01:15:55.748Z,16.50
2022-08-26T01:18:22.829Z,16.50
2022-08-26T01:21:08.366Z,16.50
2022-08-26T01:23:37.151Z,16.40
2022-08-26T01:26:19.815Z,16.70
2022-08-26T01:28:50.627Z,16.50
2022-08-26T01:31:20.783Z,16.50
2022-08-26T01:33:47.451Z,17.40
2022-08-26T01:36:15.243Z,19.80
2022-08-26T01:38:42.790Z,16.80
2022-08-26T01:41:16.059Z,16.60
2022-08-26T01:43:48.459Z,16.70
2022-08-26T01:46:16.074Z,16.70
2022-08-26T01:48:44.704Z,16.70
2022-08-26T01:51:12.336Z,17.60
2022-08-26T01:53:41.776Z,17.40
2022-08-26T01:56:12.917Z,16.70
2022-08-26T01:58:48.462Z,16.80
2022-08-26T02:01:15.495Z,16.80
2022-08-26T02:04:09.049Z,17.10
2022-08-26T02:06:37.401Z,17.00
2022-08-26T02:09:05.013Z,19.90
2022-08-26T02:11:32.642Z,16.90
2022-08-26T02:14:03.379Z,18.40
2022-08-26T02:16:33.390Z,18.20
2022-08-26T02:19:00.675Z,16.90
2022-08-26T02:21:27.527Z,17.20
2022-08-26T02:23:56.090Z,18.40
2022-08-26T02:29:02.431Z,16.70
2022-08-26T02:31:29.419Z,16.90
2022-08-26T02:33:56.346Z,17.00
2022-08-26T02:36:25.070Z,17.10
2022-08-26T02:38:55.500Z,17.30
2022-08-26T02:41:23.069Z,18.70
2022-08-26T02:43:49.838Z,18.80
2022-08-26T02:46:26.771Z,17.70
2022-08-26T02:48:54.790Z,17.90
2022-08-26T02:51:21.491Z,17.50
2022-08-26T02:53:48.776Z,17.40
2022-08-26T02:56:15.439Z,18.30
2022-08-26T02:58:42.100Z,17.70
2022-08-26T03:01:08.816Z,17.20
2022-08-26T03:03:35.460Z,19.10
2022-08-26T03:06:02.847Z,16.70
2022-08-26T03:08:29.465Z,16.60
2022-08-26T03:10:56.065Z,17.70
2022-08-26T03:13:22.686Z,17.40
2022-08-26T03:15:49.365Z,16.60
2022-08-26T03:18:16.203Z,16.80
2022-08-26T03:20:42.944Z,17.30
2022-08-26T03:23:10.791Z,17.60
2022-08-26T03:25:37.712Z,17.70
2022-08-26T03:28:04.817Z,16.80
2022-08-26T03:30:44.996Z,16.50
2022-08-26T03:33:13.198Z,18.10
2022-08-26T03:35:40.969Z,17.00
2022-08-26T03:38:08.382Z,16.70
2022-08-26T03:40:36.575Z,16.80
2022-08-26T03:43:04.104Z,18.00
2022-08-26T03:45:30.966Z,16.90
2022-08-26T03:47:57.798Z,16.80
2022-08-26T03:50:25.336Z,17.70
2022-08-26T03:52:54.167Z,16.80
2022-08-26T03:55:23.700Z,17.30
2022-08-26T03:57:50.861Z,18.10
2022-08-26T04:00:18.509Z,18.40
2022-08-26T04:02:46.338Z,17.00
2022-08-26T04:05:14.087Z,17.50
2022-08-26T04:07:41.485Z,16.50
2022-08-26T04:10:08.920Z,16.50
2022-08-26T04:12:37.394Z,16.40
2022-08-26T04:15:06.064Z,17.70
2022-08-26T04:17:32.954Z,16.40
2022-08-26T04:19:59.554Z,16.30
2022-08-26T04:22:26.287Z,16.30
2022-08-26T04:24:53.273Z,17.30
2022-08-26T04:27:20.019Z,17.80
2022-08-26T04:29:47.972Z,17.20
2022-08-26T04:32:16.066Z,17.70
2022-08-26T04:34:43.207Z,15.90
2022-08-26T04:37:11.551Z,17.70
2022-08-26T04:39:38.208Z,16.60
2022-08-26T04:42:05.938Z,16.00
2022-08-26T04:44:34.688Z,16.10
2022-08-26T04:47:02.961Z,17.30
2022-08-26T04:49:35.374Z,16.90
2022-08-26T04:52:02.725Z,16.20
2022-08-26T04:54:29.316Z,16.40
2022-08-26T04:56:56.092Z,16.80
2022-08-26T04:59:22.802Z,19.20
2022-08-26T05:01:52.592Z,17.10
2022-08-26T05:04:19.996Z,18.40
2022-08-26T05:06:47.614Z,17.10
2022-08-26T05:09:15.323Z,18.10
2022-08-26T05:11:42.222Z,17.70
2022-08-26T05:14:09.712Z,17.60
2022-08-26T05:16:36.409Z,17.00
2022-08-26T05:19:03.626Z,17.40
2022-08-26T05:21:30.340Z,16.30
2022-08-26T05:23:57.191Z,16.90
2022-08-26T05:26:24.868Z,17.90
2022-08-26T05:28:54.613Z,18.70
2022-08-26T05:31:27.101Z,18.00
2022-08-26T05:33:54.398Z,17.00
2022-08-26T05:36:22.146Z,17.10
2022-08-26T05:38:49.057Z,17.40
2022-08-26T05:41:21.706Z,18.80
2022-08-26T05:43:48.378Z,17.50
2022-08-26T05:46:15.734Z,18.70
2022-08-26T05:48:44.266Z,17.80
2022-08-26T05:51:11.563Z,17.80
2022-08-26T05:53:38.744Z,18.10
2022-08-26T05:56:06.091Z,17.90
2022-08-26T05:58:33.501Z,18.00
2022-08-26T06:01:14.510Z,18.00
2022-08-26T06:03:42.782Z,18.00
2022-08-26T06:06:10.667Z,20.60
2022-08-26T06:08:37.586Z,18.80
2022-08-26T06:11:06.034Z,18.10
2022-08-26T06:13:33.549Z,18.20
2022-08-26T06:16:03.892Z,18.20
2022-08-26T06:18:36.300Z,18.20
2022-08-26T06:21:12.242Z,20.10
2022-08-26T06:23:57.959Z,18.40
2022-08-26T06:26:25.777Z,18.40
2022-08-26T06:28:52.428Z,19.70
2022-08-26T06:31:19.105Z,19.30
2022-08-26T06:33:45.979Z,18.90
2022-08-26T06:36:18.588Z,19.10
2022-08-26T06:38:47.070Z,19.10
2022-08-26T06:41:13.831Z,19.90
2022-08-26T06:43:41.690Z,19.80
2022-08-26T06:46:10.093Z,20.50
2022-08-26T06:48:39.635Z,19.50
2022-08-26T06:51:07.636Z,19.50
2022-08-26T06:53:34.672Z,21.70
2022-08-26T06:56:02.987Z,19.60
2022-08-26T06:58:29.900Z,19.90
2022-08-26T07:01:01.989Z,20.80
2022-08-26T07:03:30.658Z,21.90
2022-08-26T07:06:04.957Z,20.20
2022-08-26T07:08:31.850Z,20.30
2022-08-26T07:10:58.518Z,20.40
2022-08-26T07:13:30.550Z,20.50
2022-08-26T07:15:58.058Z,22.70
2022-08-26T07:18:29.571Z,20.60
2022-08-26T07:20:56.223Z,23.30
2022-08-26T07:23:22.942Z,21.10
2022-08-26T07:25:49.751Z,21.30
2022-08-26T07:28:16.555Z,23.70
2022-08-26T07:30:43.474Z,21.20
2022-08-26T07:33:10.207Z,22.50
2022-08-26T07:35:37.668Z,21.90
2022-08-26T07:38:04.380Z,21.50
2022-08-26T07:40:32.089Z,22.30
2022-08-26T07:42:58.779Z,21.60
2022-08-26T07:45:27.674Z,21.70
2022-08-26T07:47:54.619Z,21.90
2022-08-26T07:50:22.348Z,21.90
2022-08-26T07:53:10.612Z,22.00
2022-08-26T07:55:37.581Z,22.10
2022-08-26T07:58:05.593Z,22.20
2022-08-26T08:00:33.261Z,22.30
2022-08-26T08:03:01.531Z,22.40
2022-08-26T08:05:33.343Z,22.50
2022-08-26T08:08:26.825Z,22.60
2022-08-26T08:10:48.817Z,22.70
2022-08-26T08:13:15.745Z,22.80
2022-08-26T08:15:42.485Z,24.40
2022-08-26T08:18:15.528Z,23.00
2022-08-26T08:20:54.447Z,23.10
2022-08-26T08:23:29.700Z,23.20
2022-08-26T08:26:10.213Z,24.00
2022-08-26T08:28:40.081Z,23.50
2022-08-26T08:31:08.553Z,23.50
2022-08-26T08:33:35.475Z,23.50
2022-08-26T08:36:02.218Z,23.80
2022-08-26T08:38:29.686Z,23.90
2022-08-26T08:40:56.386Z,24.00
2022-08-26T08:43:38.601Z,24.00
2022-08-26T08:46:10.960Z,24.00
2022-08-26T08:48:40.710Z,24.10
2022-08-26T08:51:26.741Z,24.20
2022-08-26T08:53:54.593Z,24.40
2022-08-26T08:56:32.980Z,24.50
2022-08-26T08:58:59.933Z,24.60
2022-08-26T09:01:45.551Z,24.70
2022-08-26T09:04:17.221Z,24.90
2022-08-26T09:06:45.685Z,25.10
2022-08-26T09:09:18.112Z,25.30
2022-08-26T09:11:44.881Z,25.40
2022-08-26T09:14:11.619Z,25.70
2022-08-26T09:16:49.208Z,26.20
2022-08-26T09:19:31.985Z,26.00
2022-08-26T09:21:59.658Z,26.10
2022-08-26T09:24:28.507Z,26.30
2022-08-26T09:26:58.266Z,26.20
2022-08-26T09:29:26.491Z,26.40
2022-08-26T09:32:13.766Z,26.50
2022-08-26T09:34:53.774Z,26.70
2022-08-26T09:37:55.980Z,27.00
2022-08-26T09:40:28.578Z,27.10
2022-08-26T09:43:22.428Z,27.10
2022-08-26T09:45:59.059Z,27.10
2022-08-26T09:48:28.423Z,27.20
2022-08-26T09:50:57.930Z,27.30
2022-08-26T09:53:30.528Z,27.50
2022-08-26T09:56:16.189Z,27.50
2022-08-26T09:58:44.351Z,27.60
2022-08-26T10:01:26.800Z,27.60
2022-08-26T10:04:04.908Z,27.70
2022-08-26T10:06:39.068Z,27.80
2022-08-26T10:09:09.635Z,27.80
2022-08-26T10:11:42.587Z,27.70
2022-08-26T10:14:18.558Z,27.80
2022-08-26T10:19:55.639Z,27.70
2022-08-26T10:22:22.152Z,27.70
2022-08-26T10:24:54.484Z,27.80
2022-08-26T10:27:49.573Z,27.90
2022-08-26T10:30:19.965Z,28.10
2022-08-26T10:32:58.241Z,28.40
2022-08-26T10:35:27.022Z,28.50
2022-08-26T10:37:58.648Z,28.40
2022-08-26T10:40:26.336Z,28.40
2022-08-26T10:43:07.184Z,28.40
2022-08-26T10:45:38.465Z,28.50
2022-08-26T10:48:06.806Z,28.60
2022-08-26T10:50:38.296Z,28.60
2022-08-26T10:53:12.944Z,28.80
2022-08-26T10:55:59.958Z,28.80
2022-08-26T10:58:35.898Z,28.80
2022-08-26T11:01:31.441Z,28.90
2022-08-26T11:04:01.266Z,29.00
2022-08-26T11:06:29.031Z,29.10
2022-08-26T11:09:01.092Z,29.20
2022-08-26T11:11:39.867Z,29.40
2022-08-26T11:14:09.587Z,29.50
2022-08-26T11:16:42.847Z,29.30
2022-08-26T11:19:11.668Z,29.00
2022-08-26T11:21:44.158Z,28.70
2022-08-26T11:24:30.181Z,28.50
2022-08-26T11:26:58.420Z,28.30
2022-08-26T11:29:57.969Z,28.20
2022-08-26T11:32:34.495Z,28.00
2022-08-26T11:35:05.157Z,27.80
2022-08-26T11:37:35.797Z,27.60
2022-08-26T11:40:12.358Z,25.60
2022-08-26T11:42:41.692Z,27.50
2022-08-26T11:45:22.615Z,27.40
2022-08-26T11:47:50.321Z,27.30
2022-08-26T11:50:27.584Z,27.30
2022-08-26T11:53:01.944Z,27.10
2022-08-26T11:55:30.045Z,26.90
2022-08-26T11:57:57.871Z,26.60
2022-08-26T12:00:27.371Z,26.40
2022-08-26T12:03:02.420Z,26.20
2022-08-26T12:05:31.354Z,26.00
2022-08-26T12:08:00.989Z,25.90
2022-08-26T12:10:30.044Z,25.70
2022-08-26T12:12:58.691Z,25.50
2022-08-26T12:15:26.404Z,25.40
2022-08-26T12:17:56.404Z,25.30
2022-08-26T12:20:30.740Z,25.30
2022-08-26T12:22:59.254Z,25.30
2022-08-26T12:25:26.495Z,25.20
2022-08-26T12:27:54.038Z,25.10
2022-08-26T12:30:24.608Z,25.00
2022-08-26T12:33:02.959Z,25.00
2022-08-26T12:35:38.963Z,25.10
2022-08-26T12:38:08.837Z,25.10
2022-08-26T12:40:40.120Z,25.10
2022-08-26T12:43:08.154Z,25.20
2022-08-26T12:45:45.445Z,25.30
2022-08-26T12:48:13.643Z,25.40
2022-08-26T12:50:45.849Z,25.40
2022-08-26T12:53:12.480Z,25.60
2022-08-26T12:55:43.764Z,25.70
2022-08-26T12:58:20.349Z,25.80
2022-08-26T13:01:08.627Z,25.90
2022-08-26T13:03:37.366Z,26.40
2022-08-26T13:06:22.412Z,26.70
2022-08-26T13:08:51.425Z,26.70
2022-08-26T13:11:20.545Z,26.70
2022-08-26T13:13:48.437Z,26.50
2022-08-26T13:16:15.386Z,26.50
2022-08-26T13:18:42.110Z,26.50
2022-08-26T13:21:11.105Z,26.60
2022-08-26T13:23:41.988Z,26.80
2022-08-26T13:26:09.268Z,26.90
2022-08-26T13:28:35.940Z,27.20
2022-08-26T13:31:03.143Z,27.30
2022-08-26T13:33:33.512Z,27.40
2022-08-26T13:36:00.833Z,27.40
2022-08-26T13:38:33.840Z,27.50
2022-08-26T13:41:02.566Z,27.50
2022-08-26T13:43:30.448Z,27.50
2022-08-26T13:45:57.216Z,27.50
2022-08-26T13:48:23.990Z,27.50
2022-08-26T13:50:52.115Z,27.60
2022-08-26T13:53:18.922Z,27.40
2022-08-26T13:55:45.706Z,27.40
2022-08-26T13:58:13.763Z,27.30
2022-08-26T14:00:41.707Z,27.10
2022-08-26T14:03:13.115Z,27.00
2022-08-26T14:05:40.379Z,26.90
2022-08-26T14:08:07.560Z,26.70
2022-08-26T14:10:34.416Z,26.70
2022-08-26T14:13:01.127Z,26.60
2022-08-26T14:15:28.177Z,26.60
2022-08-26T14:17:55.954Z,26.50
2022-08-26T14:20:25.513Z,26.50
2022-08-26T14:23:12.731Z,26.50
2022-08-26T14:25:39.225Z,26.50
2022-08-26T14:28:05.990Z,26.40
2022-08-26T14:30:32.756Z,26.30
2022-08-26T14:32:59.585Z,26.40
2022-08-26T14:35:27.409Z,26.40
2022-08-26T14:37:54.871Z,26.40
2022-08-26T14:40:22.778Z,26.40
2022-08-26T14:42:52.721Z,26.50
2022-08-26T14:45:22.541Z,26.60
2022-08-26T14:47:49.875Z,26.60
2022-08-26T14:50:18.775Z,26.80
2022-08-26T14:53:04.398Z,26.90
2022-08-26T14:55:32.860Z,27.00
2022-08-26T14:57:59.622Z,27.10
2022-08-26T15:00:26.502Z,27.20
2022-08-26T15:02:53.388Z,27.30
2022-08-26T15:05:20.760Z,27.50
2022-08-26T15:07:47.445Z,27.60
2022-08-26T15:10:14.939Z,27.60
2022-08-26T15:12:42.022Z,27.60
2022-08-26T15:15:10.404Z,27.70
2022-08-26T15:17:37.469Z,27.70
2022-08-26T15:20:06.142Z,27.60
2022-08-26T15:22:32.847Z,27.60
2022-08-26T15:24:59.551Z,27.50
2022-08-26T15:27:26.564Z,27.30
2022-08-26T15:29:53.397Z,26.30
2022-08-26T15:32:20.352Z,25.70
2022-08-26T15:34:46.998Z,25.50
2022-08-26T15:37:13.666Z,25.50
2022-08-26T15:39:40.719Z,25.40
2022-08-26T15:42:07.466Z,24.90
2022-08-26T15:44:34.288Z,24.30
2022-08-26T15:47:01.024Z,23.70
2022-08-26T15:49:27.817Z,22.90
2022-08-26T15:51:54.997Z,22.30
2022-08-26T15:54:22.594Z,21.80
2022-08-26T15:56:52.058Z,21.30
2022-08-26T15:59:21.335Z,20.90
2022-08-26T16:01:48.384Z,20.70
2022-08-26T16:04:15.130Z,20.50
2022-08-26T16:06:42.453Z,20.20
2022-08-26T16:09:09.541Z,20.00
2022-08-26T16:11:36.461Z,19.80
2022-08-26T16:14:04.469Z,19.70
2022-08-26T16:16:32.153Z,20.70
2022-08-26T16:19:05.506Z,19.60
2022-08-26T16:21:34.155Z,19.60
2022-08-26T16:24:00.894Z,19.60
2022-08-26T16:26:28.961Z,19.60
2022-08-26T16:28:55.635Z,19.60
2022-08-26T16:31:22.447Z,19.60
2022-08-26T16:33:49.200Z,19.60
2022-08-26T16:36:16.308Z,20.10
2022-08-26T16:38:47.658Z,19.90
2022-08-26T16:41:14.314Z,19.90
2022-08-26T16:43:40.996Z,19.90
2022-08-26T16:46:07.962Z,21.70
2022-08-26T16:48:35.231Z,21.30
2022-08-26T16:51:02.105Z,21.00
2022-08-26T16:53:28.898Z,19.90
2022-08-26T16:55:55.630Z,22.40
2022-08-26T16:58:22.515Z,20.00
2022-08-26T17:00:49.437Z,21.20
2022-08-26T17:03:16.883Z,19.90
2022-08-26T17:05:43.894Z,21.20
2022-08-26T17:08:11.035Z,19.80
2022-08-26T17:10:38.008Z,19.90
2022-08-26T17:13:04.832Z,19.80
2022-08-26T17:15:31.542Z,19.80
2022-08-26T17:17:58.228Z,19.70
2022-08-26T17:20:25.393Z,19.70
2022-08-26T17:22:52.998Z,19.70
2022-08-26T17:25:21.956Z,19.60
2022-08-26T17:27:48.789Z,19.50
2022-08-26T17:30:16.596Z,19.50
2022-08-26T17:32:43.684Z,19.50
2022-08-26T17:35:13.053Z,19.50
2022-08-26T17:37:40.485Z,19.50
2022-08-26T17:40:09.652Z,19.50
2022-08-26T17:42:40.033Z,19.50
2022-08-26T17:45:07.461Z,19.50
2022-08-26T17:47:34.747Z,19.50
2022-08-26T17:50:01.676Z,19.60
2022-08-26T17:52:29.022Z,19.50
2022-08-26T17:54:56.404Z,19.50
2022-08-26T17:57:23.807Z,20.00
2022-08-26T17:59:50.777Z,19.40
2022-08-26T18:02:20.297Z,19.30
2022-08-26T18:04:47.208Z,19.30
2022-08-26T18:07:14.556Z,19.80
2022-08-26T18:09:41.181Z,19.40
2022-08-26T18:12:08.052Z,19.30
2022-08-26T18:14:35.273Z,19.80
2022-08-26T18:17:02.077Z,20.10
2022-08-26T18:19:29.869Z,19.20
2022-08-26T18:21:56.838Z,19.20
2022-08-26T18:24:23.611Z,19.20
2022-08-26T18:26:51.045Z,19.20
2022-08-26T18:29:18.777Z,19.10
2022-08-26T18:31:45.513Z,19.10
2022-08-26T18:34:14.342Z,19.10
2022-08-26T18:36:41.421Z,19.10
2022-08-26T18:39:08.659Z,19.00
2022-08-26T18:41:40.494Z,19.00
2022-08-26T18:44:13.311Z,19.00
2022-08-26T18:46:40.888Z,19.00
2022-08-26T18:49:08.478Z,19.10
2022-08-26T18:51:35.631Z,18.70
2022-08-26T18:54:04.016Z,19.00
2022-08-26T18:56:31.557Z,19.10
2022-08-26T18:58:59.840Z,19.60
2022-08-26T19:01:28.313Z,19.00
2022-08-26T19:03:55.990Z,19.30
2022-08-26T19:06:23.630Z,19.00
2022-08-26T19:08:50.922Z,19.70
2022-08-26T19:11:18.313Z,19.00
2022-08-26T19:14:00.129Z,19.50
2022-08-26T19:16:27.748Z,19.70
2022-08-26T19:18:55.199Z,18.70
2022-08-26T19:21:22.531Z,18.60
2022-08-26T19:23:49.440Z,18.40
2022-08-26T19:26:16.176Z,18.50
2022-08-26T19:28:46.200Z,18.40
2022-08-26T19:31:12.966Z,17.10
2022-08-26T19:33:40.578Z,18.40
2022-08-26T19:36:11.455Z,18.30
2022-08-26T19:38:41.650Z,18.20
2022-08-26T19:41:10.264Z,18.30
2022-08-26T19:43:37.066Z,18.10
2022-08-26T19:46:13.461Z,19.00
2022-08-26T19:48:44.026Z,18.10
2022-08-26T19:51:18.151Z,18.10
2022-08-26T19:53:45.596Z,18.10
2022-08-26T19:56:12.870Z,18.10
2022-08-26T19:58:39.855Z,18.40
2022-08-26T20:01:07.232Z,18.20
2022-08-26T20:03:34.318Z,18.20
2022-08-26T20:19:37.760Z,17.70
2022-08-26T20:22:05.307Z,17.60
2022-08-26T20:24:32.580Z,17.60
2022-08-26T20:26:59.298Z,17.60
2022-08-26T20:29:25.872Z,17.70
2022-08-26T20:31:53.314Z,17.50
2022-08-26T20:34:20.828Z,18.60
2022-08-26T20:36:48.182Z,17.70
2022-08-26T20:39:19.766Z,17.50
2022-08-26T20:41:46.631Z,17.50
2022-08-26T20:44:13.856Z,17.90
2022-08-26T20:46:41.028Z,17.50
2022-08-26T20:49:07.787Z,17.50
2022-08-26T20:51:35.121Z,17.40
2022-08-26T20:54:01.825Z,19.00
2022-08-26T20:56:28.480Z,17.40
2022-08-26T20:58:58.705Z,18.00
2022-08-26T21:01:27.912Z,17.20
2022-08-26T21:03:55.319Z,17.10
2022-08-26T21:06:22.180Z,18.70
2022-08-26T21:08:49.877Z,17.10
2022-08-26T21:11:18.042Z,17.00
2022-08-26T21:14:03.997Z,17.00
2022-08-26T21:16:32.003Z,17.00
2022-08-26T21:18:58.836Z,18.40
2022-08-26T21:21:27.651Z,17.60
2022-08-26T21:23:54.771Z,18.20
2022-08-26T21:26:21.460Z,18.20
2022-08-26T21:28:48.186Z,17.80
2022-08-26T21:31:16.586Z,17.30
2022-08-26T21:33:43.658Z,17.30
2022-08-26T21:36:11.389Z,17.30
2022-08-26T21:38:38.486Z,17.40
2022-08-26T21:41:09.950Z,17.60
2022-08-26T21:43:36.823Z,17.40
2022-08-26T21:46:11.348Z,17.50
2022-08-26T21:48:39.098Z,17.40
2022-08-26T21:51:06.329Z,17.70
2022-08-26T21:53:33.051Z,17.30
2022-08-26T21:56:02.780Z,17.30
2022-08-26T21:58:29.418Z,17.30
2022-08-26T22:00:56.136Z,19.50
2022-08-26T22:03:23.027Z,17.40
2022-08-26T22:05:51.212Z,17.20
2022-08-26T22:08:20.184Z,17.20
2022-08-26T22:10:51.824Z,17.10
2022-08-26T22:13:19.668Z,17.60
2022-08-26T22:15:49.463Z,18.80
2022-08-26T22:18:16.572Z,17.90
2022-08-26T22:20:43.763Z,17.00
2022-08-26T22:23:10.605Z,16.90
2022-08-26T22:25:37.240Z,17.90
2022-08-26T22:28:04.433Z,17.80
2022-08-26T22:30:31.481Z,18.10
2022-08-26T22:32:58.180Z,16.80
2022-08-26T22:35:29.194Z,16.80
2022-08-26T22:37:57.147Z,18.00
2022-08-26T22:40:24.310Z,17.90
2022-08-26T22:42:57.944Z,17.00
2022-08-26T22:45:25.322Z,17.00
2022-08-26T22:47:51.980Z,17.00
2022-08-26T22:50:18.928Z,17.30
2022-08-26T22:52:45.568Z,16.90
2022-08-26T22:55:12.311Z,17.60
2022-08-26T22:57:39.168Z,16.90
2022-08-26T23:00:06.553Z,18.10
2022-08-26T23:02:33.216Z,17.10
2022-08-26T23:05:00.268Z,17.10
2022-08-26T23:07:26.891Z,18.30
2022-08-26T23:09:53.529Z,17.90
2022-08-26T23:12:20.205Z,18.00
2022-08-26T23:14:48.796Z,17.50
2022-08-26T23:17:15.485Z,17.60
2022-08-26T23:19:42.075Z,18.00
2022-08-26T23:22:08.845Z,18.60
2022-08-26T23:24:35.537Z,17.90
2022-08-26T23:27:02.177Z,19.10
2022-08-26T23:29:29.058Z,18.80
2022-08-26T23:31:55.771Z,19.50
2022-08-26T23:34:40.840Z,18.20
2022-08-26T23:37:09.222Z,18.20
2022-08-26T23:39:36.292Z,18.40
2022-08-26T23:42:03.401Z,19.30
2022-08-26T23:44:30.698Z,18.40
2022-08-26T23:46:58.127Z,18.30
2022-08-26T23:49:24.887Z,18.40
2022-08-26T23:52:10.046Z,18.40
2022-08-26T23:54:37.073Z,18.40
2022-08-26T23:57:03.811Z,18.50
2022-08-26T23:59:30.483Z,18.40
